D/T METAR WX W/SPE G/SPE TEMP DEWP FEEL
31/01/23 08:00 EIME 310800Z 24018KT 9999 FEW018 BKN035 07/04 Q1023 20.7mph 7°C 4°C 6.0°C
31/01/23 06:00 EIME 310600Z 24015KT 9999 FEW018 SCT040 07/04 Q1022 17.3mph 7°C 4°C 6.0°C
31/01/23 00:00 EIME 310000Z 22019KT 9999 -RA SCT016 BKN020 08/06 Q1022 -RA 21.9mph 8°C 6°C 7.6°C
30/01/23 19:00 EIME 301900Z 21015KT 9999 FEW018 SCT024 BKN050 07/04 Q1025 17.3mph 7°C 4°C 6.0°C
30/01/23 13:00 EIME 301300Z 25012KT 9999 FEW018 SCT034 08/04 Q1027 13.8mph 8°C 4°C 7.0°C
30/01/23 09:00 EIME 300900Z 24011KT 9999 FEW035 BKN180 05/02 Q1026 12.7mph 5°C 2°C 3.4°C
30/01/23 08:30 EIME 300830Z 25013KT 9999 FEW020 SCT036 BKN170 05/02 Q1026 15.0mph 5°C 2°C 3.4°C
09/01/23 06:00 EIME 090600Z 25012KT 9999 FEW018 04/02 Q0995 13.8mph 4°C 2°C 2.4°C
09/01/23 05:00 EIME 090500Z 25017KT 9999 FEW014 SCT018 BKN021 05/03 Q0993 19.6mph 5°C 3°C 3.7°C
09/01/23 04:00 EIME 090400Z 27015KT 9999 -DZ FEW013 SCT015 BKN021 05/04 Q0992 -DZ 17.3mph 5°C 4°C 4.0°C
09/01/23 03:00 EIME 090300Z 26017KT 9999 FEW010 SCT017 BKN030 06/04 Q0990 19.6mph 6°C 4°C 5.0°C
09/01/23 02:00 EIME 090200Z 24019KT 9999 -RA SCT014 BKN018 05/04 Q0988 -RA 21.9mph 5°C 4°C 4.0°C
09/01/23 00:00 EIME 090000Z 23017KT 9999 FEW018 05/03 Q0987 19.6mph 5°C 3°C 3.7°C
08/01/23 23:00 EIME 082300Z 23015KT 9999 FEW018 05/03 Q0986 17.3mph 5°C 3°C 3.7°C
08/01/23 22:00 EIME 082200Z 23016KT 9999 FEW018 05/03 Q0986 18.4mph 5°C 3°C 3.7°C
08/01/23 21:00 EIME 082100Z 23016KT 9999 FEW018 SCT200 05/03 Q0985 18.4mph 5°C 3°C 3.7°C
08/01/23 19:00 EIME 081900Z 23017KT 9999 FEW019 SCT032 05/03 Q0983 19.6mph 5°C 3°C 3.7°C
08/01/23 18:00 EIME 081800Z 22013KT 9999 FEW019CB SCT090 05/03 Q0983 15.0mph 5°C 3°C 3.7°C
08/01/23 16:00 EIME 081600Z 22013KT 9999 FEW023 SCT200 06/03 Q0981 15.0mph 6°C 3°C 4.7°C
08/01/23 15:00 EIME 081500Z 22014KT 9999 FEW025 SCT048 BKN200 07/03 Q0981 16.1mph 7°C 3°C 5.7°C
08/01/23 14:00 EIME 081400Z 22016KT 9999 FEW020 SCT028 BKN045 06/02 Q0981 18.4mph 6°C 2°C 4.4°C
08/01/23 13:00 EIME 081300Z 21015KT 9999 FEW020 SCT035 BKN060 06/01 Q0981 17.3mph 6°C 1°C 4.1°C
08/01/23 12:00 EIME 081200Z 21017KT 9999 SCT022 BKN090 06/01 Q0982 19.6mph 6°C 1°C 4.1°C
08/01/23 11:00 EIME 081100Z 21015KT 9999 FEW022 SCT100 06/01 Q0982 17.3mph 6°C 1°C 4.1°C
08/01/23 10:00 EIME 081000Z 20014KT 9999 FEW022 SCT110 04/02 Q0982 16.1mph 4°C 2°C 2.4°C
08/01/23 09:00 EIME 080900Z 22015KT 9999 FEW019 BKN120 05/02 Q0982 17.3mph 5°C 2°C 3.4°C
08/01/23 08:00 EIME 080800Z 22017KT 9999 FEW016 BKN140 06/02 Q0982 19.6mph 6°C 2°C 4.4°C
08/01/23 07:00 EIME 080700Z 21016KT 9999 FEW106 BKN110 06/02 Q0983 18.4mph 6°C 2°C 4.4°C
08/01/23 06:00 EIME 080600Z 21017G27KT 9999 FEW030 BKN090 07/03 Q0983 19.6mph 31.1mph 7°C 3°C 5.7°C
08/01/23 05:00 EIME 080500Z 21017KT 9999 FEW016 SCT130 07/02 Q0984 19.6mph 7°C 2°C 5.4°C
08/01/23 04:00 EIME 080400Z 21017KT 9999 FEW016 SCT200 06/02 Q0984 19.6mph 6°C 2°C 4.4°C
08/01/23 02:00 EIME 080200Z 22017KT 9999 FEW016 BKN160 07/03 Q0985 19.6mph 7°C 3°C 5.7°C
08/01/23 01:00 EIME 080100Z 22019KT 9999 SCT028 BKN160 07/04 Q0985 21.9mph 7°C 4°C 6.0°C
07/01/23 23:00 EIME 072300Z 22020G32KT 9999 FEW016 SCT030 BKN060 07/04 Q0984 23.0mph 36.8mph 7°C 4°C 6.0°C
07/01/23 22:00 EIME 072200Z 21021KT 9999 FEW018CB SCT028 BKN110 08/05 Q0984 24.2mph 8°C 5°C 7.3°C
07/01/23 21:00 EIME 072100Z 20022KT 9999 FEW018 SCT028 08/05 Q0983 25.3mph 8°C 5°C 7.3°C
07/01/23 20:00 EIME 072000Z 21020KT 9999 -SHRA FEW018 SCT037 BKN045 08/04 Q0982 -SHRA 23.0mph 8°C 4°C 7.0°C
07/01/23 19:00 EIME 071900Z 20025G35KT 9999 FEW045 08/04 Q0982 28.8mph 40.3mph 8°C 4°C 7.0°C
07/01/23 18:00 EIME 071800Z 21021KT 9999 FEW018CB SCT030 BKN040 07/05 Q0982 24.2mph 7°C 5°C 6.3°C
07/01/23 17:00 EIME 071700Z 21023KT 9999 FEW018 SCT090 BKN210 07/04 Q0982 26.5mph 7°C 4°C 6.0°C
07/01/23 16:00 EIME 071600Z 21024G38KT 9999 FEW035 08/03 Q0981 27.6mph 43.7mph 8°C 3°C 6.7°C
07/01/23 15:00 EIME 071500Z 21019G31KT 9999 FEW045 08/03 Q0982 21.9mph 35.7mph 8°C 3°C 6.7°C
07/01/23 14:00 EIME 071400Z 21023G37KT 9999 FEW025 SCT150 08/03 Q0983 26.5mph 42.6mph 8°C 3°C 6.7°C
07/01/23 13:00 EIME 071300Z 20019KT 9999 FEW025 08/04 Q0984 21.9mph 8°C 4°C 7.0°C
07/01/23 12:00 EIME 071200Z 21020KT 9999 FEW024 08/04 Q0985 23.0mph 8°C 4°C 7.0°C
07/01/23 11:00 EIME 071100Z 19016G27KT 9999 FEW012 SCT030 BKN036 08/05 Q0985 18.4mph 31.1mph 8°C 5°C 7.3°C
07/01/23 10:00 EIME 071000Z 19018KT 9999 FEW018 SCT250 08/04 Q0986 20.7mph 8°C 4°C 7.0°C
07/01/23 09:00 EIME 070900Z 20015KT 9999 FEW018 SCT090 07/04 Q0987 17.3mph 7°C 4°C 6.0°C
07/01/23 08:00 EIME 070800Z 21013KT 9999 FEW018 SCT090 06/04 Q0988 15.0mph 6°C 4°C 5.0°C
07/01/23 07:00 EIME 070700Z 21013KT 9999 FEW016 SCT090 07/05 Q0988 15.0mph 7°C 5°C 6.3°C
07/01/23 06:00 EIME 070600Z 21011KT CAVOK 08/05 Q0989 12.7mph 8°C 5°C 7.3°C
07/01/23 05:00 EIME 070500Z VRB02KT CAVOK 07/06 Q0990 2.3mph 7°C 6°C 6.6°C
07/01/23 04:00 EIME 070400Z 19007KT CAVOK 07/06 Q0990 8.1mph 7°C 6°C 6.6°C
07/01/23 03:00 EIME 070300Z 22007KT 9999 -RA BKN012 BKN024 08/07 Q0992 -RA 8.1mph 8°C 7°C 8.0°C
07/01/23 02:00 EIME 070200Z 21007KT 9999 -RA BKN015 BKN042 08/07 Q0992 -RA 8.1mph 8°C 7°C 8.0°C
07/01/23 01:00 EIME 070100Z 23005KT 200V270 5000 -RA SCT005 BKN025 08/07 Q0993 -RA 5.8mph 8°C 7°C 8.0°C
07/01/23 00:00 EIME 070000Z 20017KT 9999 -RA FEW016 BKN060 11/09 Q0992 -RA 19.6mph 11°C 9°C 11.8°C
06/01/23 23:00 EIME 062300Z 20016KT 9999 -RA FEW010 BKN060 11/09 Q0993 -RA 18.4mph 11°C 9°C 11.8°C
06/01/23 22:00 EIME 062200Z 20018KT 9999 -RA FEW014 SCT036 BKN060 11/09 Q0994 -RA 20.7mph 11°C 9°C 11.8°C
06/01/23 20:00 EIME 062000Z 20019KT 9999 FEW017 BKN020 11/07 Q0996 21.9mph 11°C 7°C 11.0°C
06/01/23 19:00 EIME 061900Z 18014KT 9999 FEW015 SCT017 BKN022 11/08 Q0997 16.1mph 11°C 8°C 11.4°C
06/01/23 18:00 EIME 061800Z 18009KT 9999 FEW014 SCT036 BKN050 10/07 Q0998 10.4mph 10°C 7°C 10.0°C
06/01/23 17:00 EIME 061700Z 19014KT 9999 FEW023 SCT090 BKN120 10/06 Q0999 16.1mph 10°C 6°C 9.6°C
06/01/23 16:30 EIME 061630Z 18012KT 9999 -RA FEW018 BKN090 09/07 Q1000 -RA 13.8mph 9°C 7°C 9.0°C
06/01/23 16:00 EIME 061600Z 19009KT 9999 FEW018 SCT021 BKN028 09/06 Q1001 10.4mph 9°C 6°C 8.6°C
06/01/23 15:30 EIME 061530Z 19011KT 9999 FEW018 SCT025 BKN035 10/06 Q1001 12.7mph 10°C 6°C 9.6°C
06/01/23 15:00 EIME 061500Z 19009KT 160V220 9999 FEW022 BKN120 10/06 Q1002 10.4mph 10°C 6°C 9.6°C
06/01/23 14:30 EIME 061430Z 19013KT 9999 FEW028 10/06 Q1002 15.0mph 10°C 6°C 9.6°C
06/01/23 14:00 EIME 061400Z 20012KT 9999 FEW028 BKN100 10/06 Q1003 13.8mph 10°C 6°C 9.6°C
06/01/23 13:30 EIME 061330Z 20013KT 9999 FEW020 BKN150 10/06 Q1004 15.0mph 10°C 6°C 9.6°C
06/01/23 13:00 EIME 061300Z 20014KT 9999 FEW020 SCT034 BKN040 10/06 Q1005 16.1mph 10°C 6°C 9.6°C
06/01/23 12:30 EIME 061230Z 20012KT 9999 SCT050 BKN130 09/06 Q1005 13.8mph 9°C 6°C 8.6°C
06/01/23 12:00 EIME 061200Z 20013KT 9999 FEW036 SCT040 BKN130 09/06 Q1006 15.0mph 9°C 6°C 8.6°C
06/01/23 11:30 EIME 061130Z 21014KT CAVOK 09/05 Q1006 16.1mph 9°C 5°C 8.3°C
06/01/23 11:00 EIME 061100Z 21012KT CAVOK 08/05 Q1007 13.8mph 8°C 5°C 7.3°C
06/01/23 10:30 EIME 061030Z 20013KT 9999 FEW018 BKN150 08/05 Q1007 15.0mph 8°C 5°C 7.3°C
06/01/23 10:00 EIME 061000Z 21011KT 9999 FEW018 BKN150 07/05 Q1007 12.7mph 7°C 5°C 6.3°C
06/01/23 09:30 EIME 060930Z 21010KT 9999 FEW018 BKN150 07/05 Q1007 11.5mph 7°C 5°C 6.3°C
06/01/23 09:00 EIME 060900Z 21012KT 9999 FEW018 BKN150 07/05 Q1007 13.8mph 7°C 5°C 6.3°C
06/01/23 08:30 EIME 060830Z 21013KT 9999 FEW018 SCT140 07/04 Q1007 15.0mph 7°C 4°C 6.0°C
06/01/23 08:00 EIME 060800Z 21013KT 9999 FEW016 SCT140 07/04 Q1008 15.0mph 7°C 4°C 6.0°C
06/01/23 07:00 EIME 060700Z 21014KT 9999 FEW016 SCT180 06/04 Q1007 16.1mph 6°C 4°C 5.0°C
06/01/23 06:00 EIME 060600Z 22014KT 9999 FEW016 SCT200 06/04 Q1008 16.1mph 6°C 4°C 5.0°C
06/01/23 05:00 EIME 060500Z 22018KT 9999 FEW016 06/03 Q1008 20.7mph 6°C 3°C 4.7°C
06/01/23 04:00 EIME 060400Z 22015KT 9999 FEW016 06/03 Q1008 17.3mph 6°C 3°C 4.7°C
06/01/23 02:00 EIME 060200Z 23019KT 9999 FEW016 06/03 Q1007 21.9mph 6°C 3°C 4.7°C
06/01/23 01:00 EIME 060100Z 23018KT 9999 FEW016 SCT040 06/04 Q1007 20.7mph 6°C 4°C 5.0°C
06/01/23 00:00 EIME 060000Z 23019KT 9999 FEW016 SCT040 07/04 Q1007 21.9mph 7°C 4°C 6.0°C
05/01/23 23:00 EIME 052300Z 23020KT 9999 FEW016 07/04 Q1006 23.0mph 7°C 4°C 6.0°C
05/01/23 22:00 EIME 052200Z 23019KT 9999 FEW016 07/04 Q1006 21.9mph 7°C 4°C 6.0°C
05/01/23 21:00 EIME 052100Z 23021KT 9999 FEW014 SCT023 08/05 Q1006 24.2mph 8°C 5°C 7.3°C
05/01/23 20:00 EIME 052000Z 24019KT 9999 FEW018 BKN120 08/05 Q1005 21.9mph 8°C 5°C 7.3°C
05/01/23 19:00 EIME 051900Z 23017KT 9999 FEW017 BKN050 BKN090 08/06 Q1005 19.6mph 8°C 6°C 7.6°C
05/01/23 18:00 EIME 051800Z 23016KT 9999 -RA FEW015 BKN046 09/07 Q1005 -RA 18.4mph 9°C 7°C 9.0°C
05/01/23 17:00 EIME 051700Z 25014KT 9999 -RA FEW010 BKN023 BKN050 10/07 Q1006 -RA 16.1mph 10°C 7°C 10.0°C
05/01/23 16:30 EIME 051630Z 26018KT 9999 -RA FEW008 BKN014 BKN040 10/08 Q1006 -RA 20.7mph 10°C 8°C 10.4°C